Terminal Aerodrome Forecast
Issued by NWS

Home | Current Version | Previous Version | Text Only | Print | Product List | Glossary On
Versions: 1 2 3 4 5 6 7 8 9 10 11 12 13 14 15 16 17
000
FTUS43 KICT 272320
TAFSLN
TAF
KSLN 272320Z 2800/2824 17015G21KT P6SM SKC
     FM280100 17013KT P6SM SKC
     FM281600 20016G23KT P6SM FEW070 SCT250
     FM282200 24013KT P6SM SCT070=

USA.gov is the U.S. government's official web portal to all federal, state and local government web resources and services.